Cambridge, Massachusetts
Current Conditions -  °F | °C
As of 11:17 AM on Wednesday 22 Oct 2014 (Local Time) from KBOS Reporting Station
Drizzle Drizzle  
Wind Chill: 52°   Ceiling: 900
Heat Index: 52°   Visibility: 2mi
Dew Point: 52°   Wind: 20mph
Humidity: 100%   Direction: 20°NNE
Pressure: 30"   Gusts: 29mph
Location:  42.37°N, 71.1°W
Report Text: KBOS 221517Z 02017G25KT 2SM -DZ BR OVC009 11/11 A3000 RMK AO2 PK WND 02031/1505 P0000
Loading
Personal Weather Stations






























Interactive Weather Map
Tropical Storm Tracking
New forecast layout! Learn more

10-Day Weather Forecast

Advertisements
Track Severe Weather on mobile